Time;durP1;ratioP1;P1;durP2;ratioP2;P2;SDS_P1;SDS_P2;PMS_P1;PMS_P2;Temp;Humidity;BMP_temperature;BMP_pressure;BME280_temperature;BME280_humidity;BME280_pressure;Samples;Min_cycle;Max_cycle;Signal;HPM_P1;HPM_P2
2023/08/14 00:01:32;;;;;;;10.13;4.37;;;;;;;16.15;100.00;101379.88;7388797;19;20415;-42
2023/08/14 00:04:02;;;;;;;10.60;4.10;;;;;;;16.15;100.00;101385.06;7366887;19;20465;-40
2023/08/14 00:06:31;;;;;;;11.67;4.23;;;;;;;16.11;100.00;101367.59;7393202;19;20417;-41
2023/08/14 00:09:01;;;;;;;9.27;4.77;;;;;;;16.19;100.00;101363.47;7366048;19;20463;-39
2023/08/14 00:11:31;;;;;;;9.10;4.57;;;;;;;16.19;100.00;101353.94;7390127;19;20479;-40
2023/08/14 00:14:00;;;;;;;8.57;3.73;;;;;;;16.04;100.00;101359.59;7363447;19;20498;-39
2023/08/14 00:16:33;;;;;;;10.00;3.97;;;;;;;15.99;100.00;101355.97;7392207;19;20427;-41
2023/08/14 00:19:03;;;;;;;8.37;4.30;;;;;;;15.96;100.00;101348.09;7364714;19;20435;-43
2023/08/14 00:21:32;;;;;;;8.43;4.93;;;;;;;15.94;100.00;101341.94;7390452;19;20431;-40
2023/08/14 00:24:02;;;;;;;6.67;3.73;;;;;;;15.90;100.00;101332.28;7364507;19;20430;-38
2023/08/14 00:26:32;;;;;;;6.97;4.17;;;;;;;15.88;100.00;101321.81;7389741;19;20416;-39
2023/08/14 00:29:02;;;;;;;10.07;4.43;;;;;;;15.90;100.00;101317.53;7370832;19;20511;-39
2023/08/14 00:31:35;;;;;;;9.10;4.70;;;;;;;15.85;100.00;101316.50;7398018;19;20407;-38
2023/08/14 00:34:05;;;;;;;11.57;4.87;;;;;;;15.79;100.00;101309.41;7372384;19;21331;-38
2023/08/14 00:36:34;;;;;;;9.63;4.43;;;;;;;15.81;100.00;101299.06;7398743;19;20487;-39
2023/08/14 00:39:05;;;;;;;8.63;4.40;;;;;;;15.81;100.00;101293.88;7365916;19;20436;-42
2023/08/14 00:41:36;;;;;;;12.80;4.30;;;;;;;15.76;100.00;101280.72;7399116;19;20411;-41
2023/08/14 00:44:06;;;;;;;12.40;4.30;;;;;;;15.77;100.00;101277.28;7372564;19;20515;-40
2023/08/14 00:46:39;;;;;;;10.47;4.30;;;;;;;15.75;100.00;101276.34;7394911;19;20935;-39
2023/08/14 00:49:08;;;;;;;7.00;4.80;;;;;;;15.74;100.00;101271.13;7372132;19;20801;-40
2023/08/14 00:51:38;;;;;;;8.67;4.70;;;;;;;15.72;100.00;101262.38;7394575;19;20952;-38
2023/08/14 00:54:08;;;;;;;13.57;4.40;;;;;;;15.69;100.00;101263.16;7370736;19;20519;-39
2023/08/14 00:56:38;;;;;;;10.60;4.60;;;;;;;15.71;100.00;101256.31;7398898;19;20433;-40
2023/08/14 00:59:08;;;;;;;7.10;4.50;;;;;;;15.68;100.00;101250.13;7370920;19;20483;-41
2023/08/14 01:01:40;;;;;;;7.93;4.40;;;;;;;15.56;100.00;101255.84;7398398;19;20415;-39
2023/08/14 01:04:10;;;;;;;9.20;4.50;;;;;;;15.53;100.00;101244.53;7370967;19;20455;-41
2023/08/14 01:06:40;;;;;;;11.30;4.80;;;;;;;15.51;100.00;101238.41;7395861;19;20407;-39
2023/08/14 01:09:11;;;;;;;8.90;4.40;;;;;;;15.49;100.00;101237.47;7371175;19;20901;-43
2023/08/14 01:11:46;;;;;;;9.50;5.07;;;;;;;15.50;100.00;101230.56;7395968;19;20422;-41
2023/08/14 01:14:21;;;;;;;9.63;3.90;;;;;;;15.57;100.00;101226.41;7371701;19;20442;-42
2023/08/14 01:16:59;;;;;;;8.00;4.37;;;;;;;15.59;100.00;101235.16;7395984;19;20411;-38
2023/08/14 01:19:33;;;;;;;8.20;4.03;;;;;;;15.57;100.00;101229.00;7371307;19;20987;-39
2023/08/14 01:22:07;;;;;;;14.43;5.37;;;;;;;15.57;100.00;101226.41;7395843;19;20403;-38
2023/08/14 01:24:45;;;;;;;7.57;4.37;;;;;;;15.52;100.00;101224.56;7367085;19;20399;-39
2023/08/14 01:27:20;;;;;;;6.53;3.73;;;;;;;15.47;100.00;101226.16;7368037;19;20415;-40
2023/08/14 01:29:56;;;;;;;11.23;4.47;;;;;;;15.55;100.00;101228.09;7392457;19;20399;-39
2023/08/14 01:32:26;;;;;;;7.13;4.07;;;;;;;15.53;100.00;101226.31;7367968;19;20430;-40
2023/08/14 01:34:57;;;;;;;7.67;3.93;;;;;;;15.54;100.00;101232.41;7390269;19;20844;-41
2023/08/14 01:37:33;;;;;;;10.53;4.00;;;;;;;15.56;100.00;101235.94;7372979;19;20447;-40
2023/08/14 01:40:10;;;;;;;6.13;4.33;;;;;;;15.51;100.00;101232.31;7393739;19;20935;-44
2023/08/14 01:42:43;;;;;;;7.10;3.87;;;;;;;15.47;100.00;101235.66;7372382;19;20439;-39
2023/08/14 01:45:15;;;;;;;10.93;4.80;;;;;;;15.50;100.00;101243.56;7396744;19;20415;-39
2023/08/14 01:47:46;;;;;;;6.20;3.73;;;;;;;15.48;100.00;101237.44;7366330;19;20484;-38
2023/08/14 01:50:17;;;;;;;7.10;4.10;;;;;;;15.43;100.00;101246.81;7394134;19;20412;-41
2023/08/14 01:52:48;;;;;;;8.80;4.27;;;;;;;15.33;100.00;101248.25;7372125;19;20440;-42
2023/08/14 01:55:18;;;;;;;6.30;4.07;;;;;;;15.25;100.00;101254.13;7396138;19;20416;-40
2023/08/14 01:57:50;;;;;;;5.83;3.80;;;;;;;15.21;100.00;101253.94;7373965;19;20974;-38
2023/08/14 02:00:20;;;;;;;9.37;3.97;;;;;;;15.20;100.00;101242.69;7394660;19;20437;-41
2023/08/14 02:02:50;;;;;;;5.70;3.50;;;;;;;15.24;100.00;101235.88;7371730;19;20459;-39
2023/08/14 02:05:20;;;;;;;12.87;4.47;;;;;;;15.35;100.00;101239.69;7392475;19;20809;-40
2023/08/14 02:07:50;;;;;;;7.43;4.47;;;;;;;15.36;100.00;101243.13;7368932;19;21010;-45
2023/08/14 02:10:21;;;;;;;9.10;4.40;;;;;;;15.37;100.00;101231.91;7396507;19;20416;-39
2023/08/14 02:12:53;;;;;;;8.23;3.60;;;;;;;15.35;100.00;101241.38;7368687;19;21262;-43
2023/08/14 02:15:22;;;;;;;8.60;4.50;;;;;;;15.24;100.00;101254.06;7395152;19;20491;-45
2023/08/14 02:17:52;;;;;;;7.03;3.90;;;;;;;15.20;100.00;101242.69;7371951;19;20999;-43
2023/08/14 02:20:22;;;;;;;9.67;5.00;;;;;;;15.09;100.00;101234.53;7393629;19;20514;-41
2023/08/14 02:22:52;;;;;;;9.20;3.90;;;;;;;15.04;100.00;101240.44;7368149;19;20427;-42
2023/08/14 02:25:21;;;;;;;8.00;3.50;;;;;;;15.00;100.00;101242.06;7394953;19;20445;-40
2023/08/14 02:27:53;;;;;;;11.70;5.40;;;;;;;14.95;100.00;101239.34;7371964;19;20464;-41
2023/08/14 02:30:23;;;;;;;7.60;4.00;;;;;;;14.93;100.00;101240.97;7396307;19;20442;-43
2023/08/14 02:32:53;;;;;;;8.83;3.30;;;;;;;14.95;100.00;101243.63;7368989;19;20431;-44
2023/08/14 02:35:23;;;;;;;7.03;3.73;;;;;;;14.92;100.00;101246.16;7392999;19;20431;-46
2023/08/14 02:37:53;;;;;;;25.40;11.10;;;;;;;14.88;100.00;101231.28;7368513;19;20464;-39
2023/08/14 02:40:22;;;;;;;8.70;3.67;;;;;;;14.92;100.00;101235.75;7391695;19;20435;-42
2023/08/14 02:42:54;;;;;;;9.73;4.30;;;;;;;14.90;100.00;101229.63;7370091;19;20429;-42
2023/08/14 02:45:24;;;;;;;10.67;4.13;;;;;;;14.93;100.00;101220.19;7392365;19;20416;-43
2023/08/14 02:47:54;;;;;;;9.63;4.03;;;;;;;15.05;100.00;101221.41;7369020;19;20427;-39
2023/08/14 02:50:24;;;;;;;8.93;3.53;;;;;;;15.00;100.00;101213.50;7391497;19;20428;-45
2023/08/14 02:52:54;;;;;;;12.13;4.23;;;;;;;14.98;100.00;101210.84;7370605;19;20434;-44
2023/08/14 02:55:24;;;;;;;8.13;4.73;;;;;;;15.01;100.00;101214.38;7393836;19;20423;-42
2023/08/14 02:57:56;;;;;;;13.93;4.03;;;;;;;15.12;100.00;101223.38;7371242;19;20555;-39
2023/08/14 03:00:26;;;;;;;10.77;5.17;;;;;;;15.11;100.00;101217.31;7395356;19;20952;-42
2023/08/14 03:02:55;;;;;;;5.50;4.23;;;;;;;15.07;100.00;101224.97;7366339;19;20440;-40
2023/08/14 03:05:25;;;;;;;12.07;4.70;;;;;;;14.93;100.00;101227.13;7393618;19;20419;-42
2023/08/14 03:07:56;;;;;;;8.73;4.50;;;;;;;14.96;100.00;101233.31;7368443;19;20465;-40
2023/08/14 03:10:26;;;;;;;9.60;4.87;;;;;;;14.97;100.00;101239.34;7391892;19;20424;-40
2023/08/14 03:13:02;;;;;;;6.50;4.27;;;;;;;14.89;100.00;101244.34;7369081;19;20427;-45
2023/08/14 03:15:32;;;;;;;12.63;4.80;;;;;;;14.84;100.00;101233.81;7392733;19;20427;-42
2023/08/14 03:18:02;;;;;;;10.10;4.30;;;;;;;14.81;100.00;101232.78;7366249;19;20419;-45
2023/08/14 03:20:33;;;;;;;10.67;6.33;;;;;;;14.75;100.00;101232.59;7390737;19;20403;-39
2023/08/14 03:23:06;;;;;;;8.77;4.43;;;;;;;14.83;100.00;101238.94;7368037;19;20413;-41
2023/08/14 03:25:36;;;;;;;8.17;4.30;;;;;;;14.82;100.00;101238.06;7388019;19;20396;-40
2023/08/14 03:28:08;;;;;;;8.63;4.50;;;;;;;14.69;100.00;101233.25;7366839;19;20896;-42
2023/08/14 03:30:43;;;;;;;9.17;4.83;;;;;;;14.61;100.00;101232.16;7390436;19;20396;-40
2023/08/14 03:33:12;;;;;;;11.40;5.33;;;;;;;14.64;100.00;101230.53;7366714;19;20427;-43
2023/08/14 03:35:42;;;;;;;10.27;5.03;;;;;;;14.71;100.00;101221.19;7386686;19;20475;-39
2023/08/14 03:38:12;;;;;;;7.00;4.97;;;;;;;14.63;100.00;101213.19;7363095;19;20419;-41
2023/08/14 03:40:42;;;;;;;9.00;4.90;;;;;;;14.56;100.00;101211.22;7389193;19;20415;-41
2023/08/14 03:43:15;;;;;;;115.73;54.00;;;;;;;14.58;100.00;101210.41;7364939;19;20484;-40
2023/08/14 03:45:44;;;;;;;75.40;37.63;;;;;;;14.61;100.00;101209.63;7387400;19;20467;-44
2023/08/14 03:48:15;;;;;;;18.53;9.23;;;;;;;14.41;100.00;101212.47;7365217;19;20414;-41
2023/08/14 03:50:49;;;;;;;25.07;14.10;;;;;;;14.49;100.00;101217.03;7390154;19;20400;-41
2023/08/14 03:53:18;;;;;;;20.17;10.07;;;;;;;14.47;100.00;101218.69;7369738;19;20443;-40
2023/08/14 03:55:48;;;;;;;15.80;6.40;;;;;;;14.58;100.00;101217.34;7391191;19;20408;-44
2023/08/14 03:58:21;;;;;;;10.03;6.30;;;;;;;14.56;100.00;101221.63;7369701;19;20431;-41
2023/08/14 04:00:51;;;;;;;21.37;10.40;;;;;;;14.51;100.00;101225.78;7392995;19;20400;-39
2023/08/14 04:03:21;;;;;;;13.80;8.93;;;;;;;14.54;100.00;101226.75;7371211;19;20851;-44
2023/08/14 04:05:56;;;;;;;28.10;15.40;;;;;;;14.60;100.00;101228.66;7397747;19;20407;-40
2023/08/14 04:08:26;;;;;;;21.57;11.17;;;;;;;14.61;100.00;101230.41;7375534;19;20491;-39
2023/08/14 04:10:57;;;;;;;20.87;10.70;;;;;;;14.67;100.00;101235.81;7399067;19;20412;-38
2023/08/14 04:13:29;;;;;;;15.17;6.73;;;;;;;14.29;100.00;101240.59;7372732;19;20434;-42
2023/08/14 04:16:03;;;;;;;15.83;5.80;;;;;;;14.32;100.00;101249.38;7393969;19;20517;-39
2023/08/14 04:18:33;;;;;;;61.83;33.67;;;;;;;14.27;100.00;101250.06;7372270;19;20482;-41
2023/08/14 04:21:03;;;;;;;20.27;12.20;;;;;;;14.61;100.00;101246.00;7396550;19;20411;-38
2023/08/14 04:23:33;;;;;;;22.30;14.03;;;;;;;14.74;100.00;101231.75;7372450;19;20407;-41
2023/08/14 04:26:02;;;;;;;18.37;12.00;;;;;;;14.67;100.00;101235.81;7393421;19;20474;-40
2023/08/14 04:28:35;;;;;;;19.60;10.43;;;;;;;14.66;100.00;101234.03;7370411;19;20430;-40
2023/08/14 04:31:04;;;;;;;22.87;13.37;;;;;;;14.85;100.00;101232.06;7394251;19;20384;-44
2023/08/14 04:33:34;;;;;;;19.17;10.10;;;;;;;15.05;100.00;101227.50;7369811;19;20426;-38
2023/08/14 04:36:04;;;;;;;13.17;8.27;;;;;;;15.07;100.00;101241.41;7398475;19;20408;-41
2023/08/14 04:38:34;;;;;;;13.20;7.30;;;;;;;15.10;100.00;101249.31;7375714;19;20454;-38
2023/08/14 04:41:03;;;;;;;13.00;7.50;;;;;;;15.15;100.00;101259.84;7396605;19;20410;-41
2023/08/14 04:43:35;;;;;;;9.10;6.63;;;;;;;15.23;100.00;101267.91;7373601;19;20524;-42
2023/08/14 04:46:11;;;;;;;12.00;6.73;;;;;;;15.32;100.00;101272.47;7395226;19;20505;-39
2023/08/14 04:48:41;;;;;;;7.80;5.37;;;;;;;15.28;100.00;101283.63;7370629;19;20409;-38
2023/08/14 04:51:10;;;;;;;9.30;4.63;;;;;;;15.14;100.00;101293.59;7397002;19;20386;-38
2023/08/14 04:53:40;;;;;;;6.67;4.50;;;;;;;15.04;100.00;101295.00;7375782;19;20445;-40
2023/08/14 04:56:09;;;;;;;10.83;4.73;;;;;;;15.04;100.00;101297.63;7394032;19;20400;-40
2023/08/14 04:58:41;;;;;;;6.20;4.73;;;;;;;15.04;100.00;101292.41;7372190;19;20445;-39
2023/08/14 05:01:11;;;;;;;8.47;6.10;;;;;;;15.03;100.00;101298.44;7396399;19;20380;-40
2023/08/14 05:03:41;;;;;;;9.70;5.03;;;;;;;14.96;100.00;101295.66;7369348;19;20419;-39
2023/08/14 05:06:11;;;;;;;8.23;5.00;;;;;;;15.06;100.00;101291.63;7393609;19;20813;-42
2023/08/14 05:08:41;;;;;;;7.07;4.40;;;;;;;15.03;100.00;101288.06;7369805;19;20479;-40
2023/08/14 05:11:10;;;;;;;8.50;5.03;;;;;;;14.85;100.00;101286.63;7392951;19;20935;-39
2023/08/14 05:13:44;;;;;;;7.80;4.00;;;;;;;14.80;100.00;101288.19;7368783;19;20392;-39
2023/08/14 05:16:14;;;;;;;8.43;4.17;;;;;;;14.76;100.00;101292.41;7393593;19;20396;-39
2023/08/14 05:18:43;;;;;;;22.70;13.17;;;;;;;14.87;100.00;101286.69;7372407;19;20447;-39
2023/08/14 05:21:13;;;;;;;8.63;5.40;;;;;;;14.82;100.00;101277.00;7396728;19;20459;-39
2023/08/14 05:23:43;;;;;;;15.43;9.80;;;;;;;14.88;100.00;101271.16;7370332;19;20470;-38
2023/08/14 05:26:12;;;;;;;19.27;11.17;;;;;;;14.99;100.00;101269.75;7393216;19;20392;-41
2023/08/14 05:28:44;;;;;;;17.67;9.73;;;;;;;15.04;100.00;101262.13;7369210;19;20391;-38
2023/08/14 05:31:14;;;;;;;15.07;9.13;;;;;;;15.03;100.00;101264.66;7392608;19;20417;-41
2023/08/14 05:33:44;;;;;;;8.10;4.83;;;;;;;15.04;100.00;101269.03;7368575;19;20438;-40
2023/08/14 05:36:13;;;;;;;9.97;5.70;;;;;;;15.11;100.00;101263.19;7392376;19;21072;-39
2023/08/14 05:38:43;;;;;;;12.73;5.23;;;;;;;15.14;100.00;101260.69;7369112;19;20391;-41
2023/08/14 05:41:13;;;;;;;13.13;6.70;;;;;;;15.17;100.00;101258.19;7394402;19;20455;-38
2023/08/14 05:43:45;;;;;;;16.73;8.00;;;;;;;15.28;100.00;101260.25;7366708;19;20423;-40
2023/08/14 05:46:15;;;;;;;18.10;9.03;;;;;;;15.30;100.00;101269.84;7393364;19;20384;-39
2023/08/14 05:48:45;;;;;;;31.13;15.60;;;;;;;15.42;100.00;101269.31;7370238;19;20391;-42
2023/08/14 05:51:15;;;;;;;12.30;8.00;;;;;;;15.50;100.00;101266.97;7392988;19;20391;-42
2023/08/14 05:53:44;;;;;;;14.10;8.70;;;;;;;15.57;100.00;101268.91;7368640;19;20399;-39
2023/08/14 05:56:14;;;;;;;11.30;6.70;;;;;;;15.71;100.00;101274.50;7391288;19;20919;-38
2023/08/14 05:58:46;;;;;;;8.43;5.60;;;;;;;15.79;100.00;101282.50;7369388;19;20444;-42
2023/08/14 06:01:17;;;;;;;8.47;5.07;;;;;;;15.86;100.00;101280.97;7394544;19;20404;-40
2023/08/14 06:03:47;;;;;;;9.63;4.70;;;;;;;15.90;100.00;101288.91;7369022;19;20800;-40
2023/08/14 06:06:17;;;;;;;6.93;4.17;;;;;;;15.95;100.00;101304.72;7394720;19;20400;-41
2023/08/14 06:08:46;;;;;;;8.13;4.60;;;;;;;16.01;100.00;101309.19;7369302;19;20412;-44
2023/08/14 06:11:16;;;;;;;10.07;4.40;;;;;;;16.05;100.00;101314.50;7394011;19;20391;-45
2023/08/14 06:13:48;;;;;;;9.80;4.50;;;;;;;16.13;100.00;101311.25;7369063;19;20410;-46
2023/08/14 06:16:18;;;;;;;6.80;4.40;;;;;;;16.15;100.00;101325.19;7397385;19;20392;-43
2023/08/14 06:18:48;;;;;;;14.03;6.30;;;;;;;16.15;100.00;101330.41;7368424;19;20413;-43
2023/08/14 06:21:18;;;;;;;9.00;4.50;;;;;;;16.23;100.00;101323.69;7394321;19;20395;-42
2023/08/14 06:23:48;;;;;;;12.03;5.00;;;;;;;16.29;100.00;101322.94;7366815;19;20470;-40
2023/08/14 06:26:17;;;;;;;7.10;4.80;;;;;;;16.37;100.00;101337.09;7388084;19;20404;-43
2023/08/14 06:28:50;;;;;;;7.77;4.23;;;;;;;16.44;100.00;101333.78;7365267;19;20966;-39
2023/08/14 06:31:19;;;;;;;8.80;4.47;;;;;;;16.58;100.00;101339.38;7390840;19;20391;-40
2023/08/14 06:33:51;;;;;;;11.60;4.87;;;;;;;16.68;100.00;101348.31;7368318;19;20419;-39
2023/08/14 06:36:21;;;;;;;15.80;11.00;;;;;;;16.80;100.00;101347.72;7391844;19;21368;-46
2023/08/14 06:38:51;;;;;;;13.10;7.83;;;;;;;16.84;100.00;101346.97;7368030;19;20499;-43
2023/08/14 06:41:22;;;;;;;22.20;12.10;;;;;;;16.96;100.00;101355.94;7392382;19;21194;-41
2023/08/14 06:43:55;;;;;;;7.80;4.60;;;;;;;16.97;100.00;101368.13;7369832;19;20496;-42
2023/08/14 06:46:25;;;;;;;7.07;4.53;;;;;;;17.02;100.00;101376.97;7392255;19;20794;-39
2023/08/14 06:48:54;;;;;;;10.53;4.80;;;;;;;17.10;100.00;101382.38;7367063;19;20395;-42
2023/08/14 06:51:24;;;;;;;13.43;5.73;;;;;;;17.20;100.00;101400.00;7392335;19;20376;-46
2023/08/14 06:53:54;;;;;;;8.53;3.90;;;;;;;17.28;100.00;101415.84;7365205;19;20462;-46
2023/08/14 06:56:24;;;;;;;10.33;5.53;;;;;;;17.36;100.00;101416.91;7391721;19;20395;-42
2023/08/14 06:58:56;;;;;;;8.50;5.27;;;;;;;17.48;100.00;101434.56;7367380;19;20998;-42
2023/08/14 07:01:26;;;;;;;10.97;5.20;;;;;;;17.49;100.00;101440.69;7393038;19;20398;-46
2023/08/14 07:03:56;;;;;;;14.70;4.90;;;;;;;17.59;100.00;101447.88;7366677;19;20440;-47
2023/08/14 07:06:25;;;;;;;11.93;5.50;;;;;;;17.70;100.00;101461.19;7390201;19;20411;-46
2023/08/14 07:08:55;;;;;;;11.80;5.40;;;;;;;17.77;100.00;101462.19;7366806;19;20434;-39
2023/08/14 07:11:25;;;;;;;8.60;4.97;;;;;;;17.84;100.00;101466.72;7393212;19;20392;-42
2023/08/14 07:13:59;;;;;;;13.17;5.00;;;;;;;17.93;100.00;101472.16;7365656;19;20395;-40
2023/08/14 07:16:29;;;;;;;9.93;4.93;;;;;;;18.02;100.00;101486.25;7389787;19;20407;-46
2023/08/14 07:18:58;;;;;;;10.27;4.43;;;;;;;18.07;100.00;101505.56;7366709;19;20470;-45
2023/08/14 07:21:28;;;;;;;13.73;5.13;;;;;;;18.06;100.00;101511.63;7390745;19;20923;-42
2023/08/14 07:23:58;;;;;;;13.50;5.07;;;;;;;18.18;100.00;101518.84;7364095;19;20407;-47
2023/08/14 07:26:27;;;;;;;13.93;5.17;;;;;;;18.38;100.00;101526.22;7389233;19;20972;-44
2023/08/14 07:29:00;;;;;;;11.47;4.90;;;;;;;18.45;100.00;101522.91;7364095;19;20435;-43
2023/08/14 07:31:29;;;;;;;12.10;4.87;;;;;;;18.48;100.00;101512.53;7389656;19;21026;-43
2023/08/14 07:33:59;;;;;;;12.30;5.30;;;;;;;18.61;100.00;101521.50;7363429;19;20514;-45
2023/08/14 07:36:28;;;;;;;12.30;4.13;;;;;;;18.59;100.00;101520.56;7390671;19;20392;-43
2023/08/14 07:38:58;;;;;;;12.10;4.80;;;;;;;18.74;100.00;101536.59;7371765;19;20423;-39
2023/08/14 07:41:28;;;;;;;9.33;4.03;;;;;;;18.87;100.00;101547.28;7398991;19;20763;-41
2023/08/14 07:44:01;;;;;;;10.60;4.30;;;;;;;19.04;100.00;101552.88;7373376;19;20473;-39
2023/08/14 07:46:30;;;;;;;7.77;3.97;;;;;;;19.13;100.00;101568.72;7398271;19;20478;-45
2023/08/14 07:49:00;;;;;;;12.03;4.20;;;;;;;19.20;100.00;101569.75;7372509;19;20982;-40
2023/08/14 07:51:29;;;;;;;10.50;3.70;;;;;;;19.29;100.00;101575.13;7396212;19;20467;-44
2023/08/14 07:53:59;;;;;;;8.83;4.43;;;;;;;19.48;100.00;101575.47;7372385;19;20414;-44
2023/08/14 07:56:29;;;;;;;12.70;4.73;;;;;;;19.54;100.00;101572.97;7394654;19;20387;-46
2023/08/14 07:59:02;;;;;;;7.27;3.83;;;;;;;19.70;100.00;101573.22;7371993;19;20426;-40
2023/08/14 08:01:32;;;;;;;7.57;4.13;;;;;;;19.84;100.00;101566.47;7398301;19;20450;-45
2023/08/14 08:04:02;;;;;;;6.47;3.73;;;;;;;19.76;100.00;101589.03;7372529;19;21002;-39
2023/08/14 08:06:32;;;;;;;11.37;4.23;;;;;;;19.83;100.00;101596.13;7398702;19;20396;-47
2023/08/14 08:09:12;;;;;;;11.67;4.10;;;;;;;19.88;100.00;101597.97;7371772;19;20407;-42
2023/08/14 08:11:42;;;;;;;9.80;3.40;;;;;;;20.07;100.00;101605.28;7398081;19;20935;-41
2023/08/14 08:14:14;;;;;;;19.97;9.30;;;;;;;20.27;100.00;101602.09;7371365;19;20963;-41
2023/08/14 08:16:44;;;;;;;10.80;3.90;;;;;;;20.39;100.00;101611.00;7397156;19;20395;-39
2023/08/14 08:19:14;;;;;;;17.07;9.23;;;;;;;20.46;100.00;101613.69;7375223;19;20457;-45
2023/08/14 08:21:44;;;;;;;8.13;3.60;;;;;;;20.51;100.00;101614.66;7393980;19;20392;-46
2023/08/14 08:24:16;;;;;;;8.43;2.87;;;;;;;20.50;100.00;101630.34;7370938;19;20431;-43
2023/08/14 08:26:46;;;;;;;16.80;8.40;;;;;;;20.57;100.00;101647.06;7394959;19;20392;-43
2023/08/14 08:29:19;;;;;;;6.37;3.13;;;;;;;20.57;100.00;101662.78;7371592;19;20427;-44
2023/08/14 08:31:48;;;;;;;9.70;3.70;;;;;;;20.66;100.00;101662.91;7397539;19;20463;-44
2023/08/14 08:34:18;;;;;;;7.73;3.03;;;;;;;20.69;100.00;101667.31;7371405;19;20785;-42
2023/08/14 08:36:47;;;;;;;6.40;3.03;;;;;;;20.73;100.00;101671.75;7393654;19;20400;-44
2023/08/14 08:39:17;;;;;;;9.83;3.50;;;;;;;20.88;100.00;101669.34;7369850;19;20972;-42
2023/08/14 08:41:51;;;;;;;7.60;3.17;;;;;;;20.98;100.00;101669.50;7395058;19;20406;-42
2023/08/14 08:44:25;;;;;;;7.70;3.33;;;;;;;20.96;100.00;101672.09;7373812;19;20467;-39
2023/08/14 08:46:58;;;;;;;10.20;3.00;;;;;;;21.01;100.00;101664.28;7394095;19;20427;-41
2023/08/14 08:49:27;;;;;;;8.07;3.07;;;;;;;21.02;100.00;101660.81;7369312;19;20403;-42
2023/08/14 08:51:58;;;;;;;9.30;4.10;;;;;;;21.10;100.00;101664.41;7394512;19;20388;-41
2023/08/14 08:54:27;;;;;;;9.27;3.73;;;;;;;21.18;100.00;101667.13;7370066;19;20427;-45
2023/08/14 08:56:58;;;;;;;15.00;3.20;;;;;;;21.30;100.00;101661.13;7393742;19;20409;-40
2023/08/14 08:59:30;;;;;;;9.27;4.50;;;;;;;21.43;100.00;101657.78;7370936;19;20407;-40
2023/08/14 09:02:00;;;;;;;8.40;2.90;;;;;;;21.48;100.00;101670.06;7393316;19;20459;-40
2023/08/14 09:04:30;;;;;;;8.33;2.80;;;;;;;21.57;100.00;101673.69;7369819;19;20483;-41
2023/08/14 09:07:00;;;;;;;8.33;3.27;;;;;;;21.74;100.00;101672.97;7394072;19;20411;-42
2023/08/14 09:09:29;;;;;;;8.47;3.50;;;;;;;21.71;100.00;101684.38;7368465;19;20424;-41
2023/08/14 09:12:01;;;;;;;6.53;3.47;;;;;;;21.71;100.00;101684.38;7396060;19;20419;-43
2023/08/14 09:14:34;;;;;;;9.70;4.30;;;;;;;21.70;100.00;101697.47;7371275;19;20495;-43
2023/08/14 09:17:05;;;;;;;5.90;3.10;;;;;;;21.63;100.00;101714.84;7398027;19;20426;-40
2023/08/14 09:19:34;;;;;;;11.10;3.47;;;;;;;21.72;100.00;101729.88;7373544;19;20786;-43
2023/08/14 09:22:04;;;;;;;8.13;3.20;;;;;;;21.82;100.00;101729.09;7396049;19;20428;-43
2023/08/14 09:24:35;;;;;;;6.30;3.17;;;;;;;21.89;100.00;101724.78;7373122;19;20431;-44
2023/08/14 09:27:05;;;;;;;8.73;4.10;;;;;;;21.94;100.00;101730.97;7396570;19;20772;-43
2023/08/14 09:29:38;;;;;;;8.03;4.03;;;;;;;21.98;100.00;101735.41;7373497;19;20522;-45
2023/08/14 09:32:07;;;;;;;5.17;2.60;;;;;;;22.18;100.00;101723.28;7398208;19;20475;-41
2023/08/14 09:34:39;;;;;;;9.60;4.20;;;;;;;22.22;100.00;101711.94;7372551;19;21105;-42
2023/08/14 09:37:09;;;;;;;6.63;2.90;;;;;;;22.22;100.00;101681.31;7395513;19;20523;-43
2023/08/14 09:39:39;;;;;;;9.10;3.40;;;;;;;22.31;100.00;101716.41;7375467;19;20522;-41
2023/08/14 09:42:09;;;;;;;8.97;5.13;;;;;;;22.25;100.00;101702.34;7395610;19;20411;-41
2023/08/14 09:44:41;;;;;;;8.20;4.23;;;;;;;22.14;100.00;101669.84;7373990;19;20443;-42
2023/08/14 09:47:13;;;;;;;10.40;3.23;;;;;;;22.19;100.00;101643.63;7394226;19;20403;-40
2023/08/14 09:49:44;;;;;;;7.10;3.17;;;;;;;22.19;100.00;101615.56;7372301;19;20439;-43
2023/08/14 09:52:14;;;;;;;5.10;2.60;;;;;;;22.22;100.00;101641.88;7374583;19;20963;-43
2023/08/14 09:54:44;;;;;;;8.60;3.97;;;;;;;22.35;100.00;101668.25;7397807;19;20412;-43
2023/08/14 09:57:14;;;;;;;7.17;3.03;;;;;;;22.40;100.00;101637.59;7383534;19;20419;-42
2023/08/14 09:59:47;;;;;;;12.13;4.07;;;;;;;22.45;100.00;101587.72;7396670;19;20418;-45
2023/08/14 10:02:18;;;;;;;6.20;3.30;;;;;;;22.45;100.00;101543.03;7370830;19;20433;-45
2023/08/14 10:04:52;;;;;;;6.03;3.30;;;;;;;22.65;100.00;101553.63;7392079;19;20490;-44
2023/08/14 10:07:24;;;;;;;10.27;3.90;;;;;;;22.72;100.00;101550.16;7371241;19;20407;-42
2023/08/14 10:09:57;;;;;;;10.10;4.17;;;;;;;22.77;100.00;101568.59;7395664;19;20399;-37
2023/08/14 10:12:32;;;;;;;12.30;6.27;;;;;;;22.77;100.00;101595.75;7372541;19;20416;-43
2023/08/14 10:15:08;;;;;;;11.20;4.90;;;;;;;22.69;100.00;101563.31;7392897;19;20958;-43
2023/08/14 10:17:43;;;;;;;12.43;5.03;;;;;;;22.68;100.00;101519.47;7371645;19;20403;-46
2023/08/14 10:20:14;;;;;;;7.73;3.07;;;;;;;22.66;100.00;101540.50;7393919;19;20417;-48
2023/08/14 10:22:44;;;;;;;8.53;3.37;;;;;;;22.46;100.00;101443.09;7366511;19;20411;-40
2023/08/14 10:25:15;;;;;;;7.03;3.47;;;;;;;22.55;100.00;101410.75;7394505;19;20423;-46
2023/08/14 10:27:45;;;;;;;12.80;6.87;;;;;;;22.72;100.00;101473.88;7371498;19;20406;-45
2023/08/14 10:30:17;;;;;;;12.67;6.90;;;;;;;22.88;100.00;101509.03;7395177;19;20418;-43
2023/08/14 10:32:48;;;;;;;9.00;3.33;;;;;;;22.72;100.00;101460.72;7373032;19;20415;-46
2023/08/14 10:35:18;;;;;;;7.00;3.10;;;;;;;22.73;100.00;101419.53;7393533;19;20418;-48
2023/08/14 10:37:50;;;;;;;17.73;5.77;;;;;;;23.17;100.00;101388.88;7370718;19;20466;-42
2023/08/14 10:40:38;;;;;;;14.47;5.70;;;;;;;23.46;100.00;101388.88;7395879;19;20757;-46
2023/08/14 10:43:08;;;;;;;14.50;5.90;;;;;;;23.43;100.00;101295.88;7370105;19;20439;-45
2023/08/14 10:45:40;;;;;;;25.80;13.23;;;;;;;23.43;100.00;101287.97;7394734;19;20404;-39
2023/08/14 10:48:12;;;;;;;15.60;6.93;;;;;;;23.33;100.00;101281.84;7369177;19;20453;-45
2023/08/14 10:50:42;;;;;;;11.73;6.17;;;;;;;23.28;100.00;101344.97;7392473;19;20842;-44
2023/08/14 10:53:13;;;;;;;7.37;3.17;;;;;;;23.42;100.00;101320.41;7368508;19;20437;-42
2023/08/14 10:55:45;;;;;;;7.00;3.30;;;;;;;23.51;100.00;101251.94;7391635;19;20419;-45
2023/08/14 10:58:47;;;;;;;10.27;3.70;;;;;;;23.92;100.00;101199.91;7367096;19;20534;-41
2023/08/14 11:01:21;;;;;;;16.10;3.90;;;;;;;23.63;100.00;101192.22;7392997;19;20442;-42
2023/08/14 11:04:04;;;;;;;6.80;3.50;;;;;;;23.60;100.00;101257.16;7368142;19;20423;-45
2023/08/14 11:07:05;;;;;;;9.93;3.80;;;;;;;23.60;100.00;101241.34;7393983;19;20407;-42
2023/08/14 11:09:35;;;;;;;12.30;5.03;;;;;;;23.46;100.00;101235.28;7371134;19;20978;-43
2023/08/14 11:12:07;;;;;;;6.60;3.20;;;;;;;23.24;100.00;101211.66;7390572;19;20420;-43
2023/08/14 11:14:38;;;;;;;12.17;5.30;;;;;;;23.26;100.00;101162.53;7370258;19;20773;-40
2023/08/14 11:17:11;;;;;;;32.53;14.63;;;;;;;23.35;100.00;101155.47;7394989;19;20408;-41
2023/08/14 11:19:42;;;;;;;12.67;6.73;;;;;;;23.52;100.00;101192.28;7369824;19;20458;-40
2023/08/14 11:22:12;;;;;;;8.90;5.10;;;;;;;23.68;100.00;101195.69;7395726;19;20430;-41
2023/08/14 11:24:42;;;;;;;8.63;3.20;;;;;;;23.92;100.00;101105.06;7369458;19;20459;-38
2023/08/14 11:27:12;;;;;;;9.63;4.70;;;;;;;24.32;100.00;101060.81;7393455;19;20495;-41
2023/08/14 11:29:41;;;;;;;7.97;3.20;;;;;;;24.45;100.00;101059.78;7371899;19;20534;-43